createdAt,value
2018-05-26T00:00:53.803Z,14.57
2018-05-26T00:01:54.853Z,15.65
2018-05-26T00:02:55.927Z,13.98
2018-05-26T00:03:57.019Z,16.77
2018-05-26T00:04:58.096Z,17.48
2018-05-26T00:05:59.167Z,18.80
2018-05-26T00:07:00.238Z,16.02
2018-05-26T00:08:01.308Z,16.65
2018-05-26T00:09:03.145Z,17.60
2018-05-26T00:10:04.223Z,17.17
2018-05-26T00:11:05.286Z,16.73
2018-05-26T00:12:06.360Z,15.25
2018-05-26T00:13:08.167Z,14.32
2018-05-26T00:14:09.230Z,14.55
2018-05-26T00:15:10.323Z,17.10
2018-05-26T00:16:12.115Z,14.75
2018-05-26T00:17:13.928Z,15.05
2018-05-26T00:18:14.991Z,14.98
2018-05-26T00:19:16.059Z,18.55
2018-05-26T00:20:17.119Z,16.37
2018-05-26T00:21:18.187Z,15.88
2018-05-26T00:22:19.259Z,18.55
2018-05-26T00:23:20.322Z,15.18
2018-05-26T00:24:21.377Z,16.10
2018-05-26T00:25:22.451Z,14.52
2018-05-26T00:26:23.506Z,19.48
2018-05-26T00:27:24.566Z,15.23
2018-05-26T00:28:25.636Z,19.42
2018-05-26T00:29:27.440Z,16.58
2018-05-26T00:30:28.534Z,18.12
2018-05-26T00:31:29.590Z,16.83
2018-05-26T00:32:30.654Z,14.90
2018-05-26T00:33:31.742Z,19.02
2018-05-26T00:34:32.804Z,17.55
2018-05-26T00:35:33.879Z,16.20
2018-05-26T00:36:34.931Z,16.55
2018-05-26T00:37:36.003Z,15.07
2018-05-26T00:38:37.081Z,15.90
2018-05-26T00:39:38.156Z,16.58
2018-05-26T00:40:39.229Z,19.73
2018-05-26T00:41:41.042Z,13.27
2018-05-26T00:42:42.100Z,15.50
2018-05-26T00:43:43.167Z,16.12
2018-05-26T00:44:44.250Z,14.32
2018-05-26T00:45:45.322Z,16.30
2018-05-26T00:46:46.395Z,15.25
2018-05-26T00:47:47.474Z,17.12
2018-05-26T00:48:48.537Z,15.13
2018-05-26T00:49:49.610Z,18.23
2018-05-26T00:50:50.691Z,15.57
2018-05-26T00:51:51.792Z,15.27
2018-05-26T00:52:52.843Z,18.02
2018-05-26T00:53:53.907Z,16.33
2018-05-26T00:54:54.974Z,17.23
2018-05-26T00:55:56.042Z,17.05
2018-05-26T00:56:57.107Z,18.08
2018-05-26T00:57:58.155Z,15.50
2018-05-26T00:58:59.215Z,15.95
2018-05-26T01:00:00.283Z,15.57
2018-05-26T01:01:01.367Z,17.90
2018-05-26T01:02:03.180Z,14.90
2018-05-26T01:03:04.247Z,17.75
2018-05-26T01:04:05.310Z,15.82
2018-05-26T01:05:06.387Z,17.62
2018-05-26T01:06:07.468Z,15.38
2018-05-26T01:07:08.539Z,18.05
2018-05-26T01:08:09.618Z,15.73
2018-05-26T01:09:11.423Z,19.48
2018-05-26T01:10:12.517Z,18.23
2018-05-26T01:11:13.590Z,14.60
2018-05-26T01:12:14.656Z,17.58
2018-05-26T01:13:15.729Z,14.68
2018-05-26T01:14:16.811Z,19.80
2018-05-26T01:15:17.881Z,17.83
2018-05-26T01:16:18.949Z,19.12
2018-05-26T01:17:20.034Z,17.50
2018-05-26T01:18:21.102Z,14.13
2018-05-26T01:19:22.188Z,18.02
2018-05-26T01:20:24.795Z,13.23
2018-05-26T01:21:25.862Z,18.80
2018-05-26T01:22:26.943Z,16.67
2018-05-26T01:23:28.000Z,19.85
2018-05-26T01:24:29.067Z,14.73
2018-05-26T01:25:30.144Z,18.50
2018-05-26T01:26:31.215Z,16.92
2018-05-26T01:27:32.273Z,16.92
2018-05-26T01:28:33.347Z,18.12
2018-05-26T01:29:34.406Z,13.30
2018-05-26T01:30:35.482Z,18.42
2018-05-26T01:31:37.314Z,14.18
2018-05-26T01:32:38.376Z,17.40
2018-05-26T01:33:40.173Z,16.92
2018-05-26T01:34:41.259Z,20.75
2018-05-26T01:35:42.328Z,16.10
2018-05-26T01:36:43.423Z,18.37
2018-05-26T01:37:45.227Z,15.70
2018-05-26T01:38:46.298Z,15.15
2018-05-26T01:39:47.371Z,16.70
2018-05-26T01:40:48.449Z,16.25
2018-05-26T01:41:50.267Z,14.77
2018-05-26T01:42:51.340Z,15.40
2018-05-26T01:43:52.414Z,18.40
2018-05-26T01:44:53.502Z,14.73
2018-05-26T01:45:55.302Z,17.75
2018-05-26T01:46:56.376Z,18.25
2018-05-26T01:47:57.426Z,14.50
2018-05-26T01:48:58.494Z,18.42
2018-05-26T01:49:59.568Z,17.33
2018-05-26T01:51:00.615Z,18.05
2018-05-26T01:52:02.429Z,16.02
2018-05-26T01:53:03.475Z,17.50
2018-05-26T01:54:04.588Z,14.07
2018-05-26T01:55:05.658Z,18.00
2018-05-26T01:56:06.734Z,13.10
2018-05-26T01:57:07.807Z,18.12
2018-05-26T01:58:09.614Z,14.50
2018-05-26T01:59:10.695Z,19.00
2018-05-26T02:00:11.790Z,19.17
2018-05-26T02:01:12.850Z,18.25
2018-05-26T02:02:13.931Z,19.65
2018-05-26T02:03:15.749Z,20.62
2018-05-26T02:04:17.576Z,20.73
2018-05-26T02:05:18.631Z,20.08
2018-05-26T02:06:19.715Z,17.33
2018-05-26T02:07:20.777Z,23.60
2018-05-26T02:08:22.606Z,20.00
2018-05-26T02:09:23.672Z,22.08
2018-05-26T02:10:25.482Z,22.17
2018-05-26T02:11:26.538Z,22.58
2018-05-26T02:12:27.606Z,19.52
2018-05-26T02:13:28.687Z,23.45
2018-05-26T02:14:29.746Z,16.25
2018-05-26T02:15:31.543Z,17.17
2018-05-26T02:16:32.615Z,13.52
2018-05-26T02:17:33.695Z,18.25
2018-05-26T02:18:34.764Z,17.50
2018-05-26T02:19:35.842Z,16.15
2018-05-26T02:20:37.656Z,16.10
2018-05-26T02:21:38.755Z,13.65
2018-05-26T02:22:39.837Z,17.35
2018-05-26T02:23:41.666Z,15.88
2018-05-26T02:24:42.726Z,15.13
2018-05-26T02:25:43.819Z,17.37
2018-05-26T02:26:44.881Z,16.98
2018-05-26T02:27:46.698Z,14.98
2018-05-26T02:28:47.777Z,14.98
2018-05-26T02:29:49.598Z,17.67
2018-05-26T02:30:50.697Z,17.85
2018-05-26T02:31:51.777Z,13.70
2018-05-26T02:32:53.611Z,15.55
2018-05-26T02:33:54.672Z,16.75
2018-05-26T02:34:56.476Z,15.60
2018-05-26T02:35:57.542Z,17.12
2018-05-26T02:36:59.359Z,16.77
2018-05-26T02:38:00.424Z,18.12
2018-05-26T02:39:02.244Z,19.30
2018-05-26T02:40:03.327Z,18.42
2018-05-26T02:41:04.410Z,17.67
2018-05-26T02:42:05.503Z,18.05
2018-05-26T02:43:06.622Z,16.58
2018-05-26T02:44:07.675Z,19.70
2018-05-26T02:45:08.743Z,15.38
2018-05-26T02:46:09.836Z,16.75
2018-05-26T02:47:10.945Z,14.95
2018-05-26T02:48:12.779Z,18.58
2018-05-26T02:49:13.839Z,18.92
2018-05-26T02:50:14.895Z,18.65
2018-05-26T02:51:15.967Z,17.50
2018-05-26T02:52:17.039Z,17.77
2018-05-26T02:53:18.144Z,18.45
2018-05-26T02:54:19.951Z,18.80
2018-05-26T02:55:21.016Z,16.33
2018-05-26T02:56:22.106Z,15.20
2018-05-26T02:57:23.172Z,18.90
2018-05-26T02:58:24.276Z,17.92
2018-05-26T02:59:25.344Z,16.73
2018-05-26T03:00:26.412Z,17.95
2018-05-26T03:01:27.471Z,16.60
2018-05-26T03:02:28.535Z,15.90
2018-05-26T03:03:29.595Z,19.73
2018-05-26T03:04:36.719Z,18.55
2018-05-26T03:05:44.055Z,17.20
2018-05-26T03:06:51.168Z,14.73
2018-05-26T03:07:58.181Z,19.70
2018-05-26T03:09:06.192Z,18.65
2018-05-26T03:10:13.452Z,15.73
2018-05-26T03:11:21.345Z,18.02
2018-05-26T03:12:28.659Z,16.75
2018-05-26T03:13:35.764Z,17.62
2018-05-26T03:14:42.795Z,20.05
2018-05-26T03:15:49.837Z,13.13
2018-05-26T03:16:52.918Z,15.73
2018-05-26T03:17:55.584Z,16.80
2018-05-26T03:18:56.670Z,17.50
2018-05-26T03:19:57.751Z,19.55
2018-05-26T03:20:58.847Z,13.73
2018-05-26T03:21:59.917Z,19.15
2018-05-26T03:23:01.714Z,16.00
2018-05-26T03:24:02.781Z,15.35
2018-05-26T03:25:03.834Z,16.58
2018-05-26T03:26:04.911Z,20.10
2018-05-26T03:27:05.971Z,15.65
2018-05-26T03:28:07.051Z,20.65
2018-05-26T03:29:08.139Z,16.85
2018-05-26T03:30:09.216Z,19.48
2018-05-26T03:31:11.016Z,16.65
2018-05-26T03:32:12.079Z,13.85
2018-05-26T03:33:13.882Z,18.25
2018-05-26T03:34:14.963Z,16.30
2018-05-26T03:35:16.033Z,14.95
2018-05-26T03:36:17.098Z,19.48
2018-05-26T03:37:18.208Z,13.00
2018-05-26T03:38:19.368Z,16.65
2018-05-26T03:39:20.427Z,18.05
2018-05-26T03:40:21.496Z,16.65
2018-05-26T03:41:22.572Z,18.77
2018-05-26T03:42:24.382Z,15.98
2018-05-26T03:43:25.447Z,15.27
2018-05-26T03:44:26.507Z,17.37
2018-05-26T03:45:27.568Z,15.48
2018-05-26T03:46:28.624Z,19.55
2018-05-26T03:47:29.683Z,15.27
2018-05-26T03:48:30.744Z,17.73
2018-05-26T03:49:31.833Z,15.38
2018-05-26T03:50:32.943Z,18.05
2018-05-26T03:51:34.020Z,15.40
2018-05-26T03:52:35.820Z,17.80
2018-05-26T03:53:36.885Z,18.33
2018-05-26T03:54:50.079Z,14.80
2018-05-26T03:56:03.403Z,15.73
2018-05-26T03:57:16.810Z,18.77
2018-05-26T03:58:30.245Z,20.08
2018-05-26T03:59:43.619Z,18.83
2018-05-26T04:00:44.691Z,23.10
2018-05-26T04:01:45.792Z,18.10
2018-05-26T04:02:46.889Z,19.25
2018-05-26T04:03:48.713Z,17.08
2018-05-26T04:04:49.815Z,22.75
2018-05-26T04:05:50.944Z,16.60
2018-05-26T04:06:51.947Z,20.92
2018-05-26T04:07:53.759Z,16.58
2018-05-26T04:08:54.825Z,16.40
2018-05-26T04:09:56.640Z,19.17
2018-05-26T04:10:57.686Z,18.00
2018-05-26T04:11:58.742Z,16.50
2018-05-26T04:13:00.553Z,15.70
2018-05-26T04:14:01.639Z,20.20
2018-05-26T04:15:02.708Z,17.00
2018-05-26T04:16:03.782Z,18.95
2018-05-26T04:17:04.837Z,14.30
2018-05-26T04:18:05.924Z,16.80
2018-05-26T04:19:06.991Z,18.87
2018-05-26T04:20:08.043Z,20.00
2018-05-26T04:21:09.106Z,15.20
2018-05-26T04:22:10.183Z,17.37
2018-05-26T04:23:11.251Z,19.25
2018-05-26T04:24:12.368Z,15.85
2018-05-26T04:25:13.433Z,19.85
2018-05-26T04:26:14.509Z,13.85
2018-05-26T04:27:16.303Z,16.87
2018-05-26T04:28:17.382Z,20.67
2018-05-26T04:29:18.434Z,15.98
2018-05-26T04:30:19.510Z,17.95
2018-05-26T04:31:20.583Z,18.73
2018-05-26T04:32:21.664Z,18.95
2018-05-26T04:33:22.709Z,16.15
2018-05-26T04:34:23.804Z,15.40
2018-05-26T04:35:24.876Z,16.50
2018-05-26T04:36:25.943Z,17.75
2018-05-26T04:37:27.022Z,16.92
2018-05-26T04:38:28.098Z,15.20
2018-05-26T04:39:29.916Z,16.92
2018-05-26T04:40:30.978Z,24.05
2018-05-26T04:41:32.786Z,16.33
2018-05-26T04:42:33.849Z,13.45
2018-05-26T04:43:34.919Z,17.25
2018-05-26T04:44:35.996Z,17.10
2018-05-26T04:45:37.058Z,19.73
2018-05-26T04:46:38.129Z,16.80
2018-05-26T04:47:39.193Z,16.23
2018-05-26T04:48:40.262Z,16.98
2018-05-26T04:49:41.334Z,20.20
2018-05-26T04:50:42.402Z,17.58
2018-05-26T04:51:43.474Z,19.55
2018-05-26T04:52:44.554Z,22.23
2018-05-26T04:53:45.611Z,18.17
2018-05-26T04:54:47.431Z,17.23
2018-05-26T04:55:48.484Z,19.65
2018-05-26T04:56:49.547Z,16.65
2018-05-26T04:57:50.617Z,18.70
2018-05-26T04:58:52.634Z,15.60
2018-05-26T04:59:53.743Z,17.85
2018-05-26T05:00:54.812Z,20.92
2018-05-26T05:01:55.865Z,21.42
2018-05-26T05:02:56.931Z,17.62
2018-05-26T05:03:57.991Z,20.48
2018-05-26T05:04:59.072Z,18.45
2018-05-26T05:06:00.139Z,22.48
2018-05-26T05:07:01.944Z,15.25
2018-05-26T05:08:03.040Z,18.98
2018-05-26T05:09:04.117Z,24.20
2018-05-26T05:10:05.196Z,18.33
2018-05-26T05:11:06.275Z,21.37
2018-05-26T05:12:07.344Z,16.48
2018-05-26T05:13:09.132Z,19.90
2018-05-26T05:14:10.220Z,20.08
2018-05-26T05:15:12.063Z,20.15
2018-05-26T05:16:13.868Z,20.67
2018-05-26T05:17:14.924Z,20.90
2018-05-26T05:18:15.975Z,19.12
2018-05-26T05:19:17.053Z,19.92
2018-05-26T05:20:18.155Z,18.87
2018-05-26T05:21:19.984Z,19.65
2018-05-26T05:22:21.039Z,21.75
2018-05-26T05:23:22.835Z,18.55
2018-05-26T05:24:23.915Z,15.02
2018-05-26T05:25:25.751Z,22.50
2018-05-26T05:26:26.828Z,24.48
2018-05-26T05:27:27.883Z,14.75
2018-05-26T05:28:28.952Z,22.95
2018-05-26T05:29:30.024Z,18.50
2018-05-26T05:30:31.117Z,21.85
2018-05-26T05:31:32.188Z,22.45
2018-05-26T05:32:33.278Z,23.33
2018-05-26T05:33:34.303Z,23.17
2018-05-26T05:34:35.376Z,20.95
2018-05-26T05:35:36.482Z,21.20
2018-05-26T05:36:38.290Z,19.30
2018-05-26T05:37:39.378Z,17.35
2018-05-26T05:38:41.192Z,21.73
2018-05-26T05:39:42.259Z,22.77
2018-05-26T05:40:43.338Z,21.42
2018-05-26T05:41:44.399Z,24.50
2018-05-26T05:42:45.473Z,26.62
2018-05-26T05:43:46.525Z,25.20
2018-05-26T05:44:47.600Z,24.17
2018-05-26T05:45:48.691Z,23.25
2018-05-26T05:46:49.764Z,23.38
2018-05-26T05:47:51.573Z,21.73
2018-05-26T05:48:52.660Z,22.13
2018-05-26T05:49:54.477Z,25.40
2018-05-26T05:50:55.554Z,24.08
2018-05-26T05:51:56.619Z,25.55
2018-05-26T05:52:57.679Z,24.50
2018-05-26T05:53:58.734Z,18.87
2018-05-26T05:55:00.553Z,26.50
2018-05-26T05:56:01.631Z,22.40
2018-05-26T05:57:02.711Z,21.98
2018-05-26T05:58:03.785Z,27.20
2018-05-26T05:59:05.581Z,24.63
2018-05-26T06:00:06.663Z,20.35
2018-05-26T06:01:08.474Z,21.75
2018-05-26T06:02:09.528Z,22.58
2018-05-26T06:03:11.371Z,24.42
2018-05-26T06:04:12.431Z,24.83
2018-05-26T06:05:14.239Z,22.73
2018-05-26T06:06:15.308Z,21.52
2018-05-26T06:07:16.403Z,21.37
2018-05-26T06:08:17.480Z,21.50
2018-05-26T06:09:18.570Z,24.83
2018-05-26T06:10:19.634Z,23.08
2018-05-26T06:11:21.451Z,19.62
2018-05-26T06:12:22.509Z,20.33
2018-05-26T06:13:24.343Z,23.30
2018-05-26T06:14:25.391Z,22.17
2018-05-26T06:15:26.445Z,19.42
2018-05-26T06:16:27.515Z,25.67
2018-05-26T06:17:28.589Z,23.25
2018-05-26T06:18:30.433Z,23.35
2018-05-26T06:19:31.487Z,24.42
2018-05-26T06:20:32.556Z,27.33
2018-05-26T06:21:33.628Z,24.90
2018-05-26T06:22:34.682Z,18.23
2018-05-26T06:23:35.752Z,22.92
2018-05-26T06:24:36.839Z,21.42
2018-05-26T06:25:38.644Z,23.77
2018-05-26T06:26:39.838Z,25.00
2018-05-26T06:27:40.916Z,23.42
2018-05-26T06:28:42.030Z,22.92
2018-05-26T06:29:43.148Z,26.00
2018-05-26T06:30:44.963Z,21.60
2018-05-26T06:31:46.048Z,19.75
2018-05-26T06:32:47.998Z,23.65
2018-05-26T06:33:49.038Z,25.48
2018-05-26T06:34:50.108Z,22.17
2018-05-26T06:35:51.942Z,23.55
2018-05-26T06:36:52.983Z,27.25
2018-05-26T06:37:54.054Z,22.62
2018-05-26T06:38:55.115Z,24.98
2018-05-26T06:39:56.170Z,26.02
2018-05-26T06:40:57.258Z,24.27
2018-05-26T06:41:58.326Z,26.85
2018-05-26T06:42:59.383Z,23.80
2018-05-26T06:44:00.449Z,29.15
2018-05-26T06:45:01.515Z,26.50
2018-05-26T06:46:02.579Z,25.70
2018-05-26T06:47:04.391Z,21.17
2018-05-26T06:48:05.443Z,22.75
2018-05-26T06:49:06.498Z,24.00
2018-05-26T06:50:07.558Z,20.08
2018-05-26T06:51:08.615Z,18.83
2018-05-26T06:52:09.676Z,19.10
2018-05-26T06:53:10.735Z,20.35
2018-05-26T06:54:11.795Z,19.73
2018-05-26T06:55:12.858Z,20.65
2018-05-26T06:56:13.931Z,21.20
2018-05-26T06:57:15.732Z,19.85
2018-05-26T06:58:16.794Z,22.85
2018-05-26T06:59:17.860Z,19.90
2018-05-26T07:00:19.709Z,22.60
2018-05-26T07:01:21.503Z,22.25
2018-05-26T07:02:22.569Z,16.25
2018-05-26T07:03:24.387Z,20.90
2018-05-26T07:04:25.453Z,17.58
2018-05-26T07:05:27.259Z,17.15
2018-05-26T07:06:28.359Z,16.95
2018-05-26T07:07:29.445Z,16.00
2018-05-26T07:08:30.543Z,15.60
2018-05-26T07:09:31.645Z,16.05
2018-05-26T07:10:32.701Z,18.17
2018-05-26T07:11:33.775Z,18.90
2018-05-26T07:12:34.859Z,19.50
2018-05-26T07:13:35.920Z,20.37
2018-05-26T07:14:36.986Z,19.80
2018-05-26T07:15:38.786Z,16.98
2018-05-26T07:16:39.905Z,16.15
2018-05-26T07:17:40.982Z,18.42
2018-05-26T07:18:42.031Z,15.93
2018-05-26T07:19:43.113Z,17.70
2018-05-26T07:20:44.172Z,16.00
2018-05-26T07:21:45.259Z,18.30
2018-05-26T07:22:46.326Z,15.30
2018-05-26T07:23:47.379Z,16.98
2018-05-26T07:24:48.457Z,15.98
2018-05-26T07:25:49.532Z,15.50
2018-05-26T07:26:50.621Z,15.27
2018-05-26T07:27:51.685Z,17.48
2018-05-26T07:28:52.735Z,16.60
2018-05-26T07:29:54.558Z,13.07
2018-05-26T07:30:55.621Z,14.98
2018-05-26T07:31:57.434Z,19.95
2018-05-26T07:32:58.537Z,15.15
2018-05-26T07:33:59.607Z,13.18
2018-05-26T07:35:00.663Z,15.80
2018-05-26T07:36:01.739Z,15.27
2018-05-26T07:37:02.803Z,16.45
2018-05-26T07:38:03.870Z,12.80
2018-05-26T07:39:04.937Z,16.58
2018-05-26T07:40:06.010Z,15.75
2018-05-26T07:41:07.328Z,17.42
2018-05-26T07:42:08.383Z,16.52
2018-05-26T07:43:09.463Z,15.52
2018-05-26T07:44:10.527Z,17.52
2018-05-26T07:45:11.622Z,13.85
2018-05-26T07:46:12.708Z,18.42
2018-05-26T07:47:13.783Z,14.30
2018-05-26T07:48:14.839Z,16.10
2018-05-26T07:49:15.895Z,14.52
2018-05-26T07:50:16.971Z,18.90
2018-05-26T07:51:18.051Z,13.93
2018-05-26T07:52:19.118Z,17.08
2018-05-26T07:53:20.940Z,18.85
2018-05-26T07:54:22.010Z,14.70
2018-05-26T07:55:23.073Z,14.32
2018-05-26T07:56:24.159Z,17.08
2018-05-26T07:57:25.215Z,14.85
2018-05-26T07:58:27.057Z,16.70
2018-05-26T07:59:28.118Z,18.48
2018-05-26T08:00:29.250Z,15.02
2018-05-26T08:01:30.271Z,16.55
2018-05-26T08:02:31.345Z,15.10
2018-05-26T08:03:32.410Z,16.55
2018-05-26T08:04:34.210Z,16.98
2018-05-26T08:05:35.271Z,15.68
2018-05-26T08:06:36.323Z,16.48
2018-05-26T08:07:38.126Z,16.98
2018-05-26T08:08:39.187Z,17.42
2018-05-26T08:09:40.250Z,11.93
2018-05-26T08:10:42.056Z,16.25
2018-05-26T08:11:43.114Z,15.95
2018-05-26T08:12:44.911Z,14.05
2018-05-26T08:13:45.967Z,14.77
2018-05-26T08:14:47.057Z,15.68
2018-05-26T08:15:48.204Z,12.35
2018-05-26T08:16:49.259Z,17.65
2018-05-26T08:17:50.339Z,17.20
2018-05-26T08:18:52.174Z,16.50
2018-05-26T08:19:53.987Z,14.25
2018-05-26T08:20:55.063Z,12.43
2018-05-26T08:21:56.872Z,13.45
2018-05-26T08:22:57.947Z,16.58
2018-05-26T08:23:59.756Z,12.80
2018-05-26T08:25:00.819Z,10.00
2018-05-26T08:26:02.632Z,14.40
2018-05-26T08:27:03.715Z,17.05
2018-05-26T08:28:04.788Z,12.23
2018-05-26T08:29:05.870Z,13.27
2018-05-26T08:30:06.924Z,14.93
2018-05-26T08:31:07.995Z,13.30
2018-05-26T08:32:09.066Z,16.85
2018-05-26T08:33:10.156Z,10.90
2018-05-26T08:34:11.230Z,15.55
2018-05-26T08:35:12.339Z,13.23
2018-05-26T08:36:13.423Z,16.25
2018-05-26T08:37:14.479Z,15.80
2018-05-26T08:38:15.556Z,13.68
2018-05-26T08:39:17.367Z,12.52
2018-05-26T08:40:18.418Z,14.90
2018-05-26T08:41:19.496Z,14.13
2018-05-26T08:42:20.582Z,12.35
2018-05-26T08:43:21.640Z,16.17
2018-05-26T08:44:22.735Z,13.90
2018-05-26T08:45:23.802Z,13.40
2018-05-26T08:46:25.593Z,14.48
2018-05-26T08:47:26.678Z,15.88
2018-05-26T08:48:28.480Z,10.85
2018-05-26T08:49:29.556Z,13.30
2018-05-26T08:50:31.371Z,16.58
2018-05-26T08:51:32.439Z,13.98
2018-05-26T08:52:34.234Z,13.32
2018-05-26T08:53:35.289Z,12.05
2018-05-26T08:54:36.358Z,15.20
2018-05-26T08:55:37.435Z,12.27
2018-05-26T08:56:38.517Z,10.93
2018-05-26T08:57:40.344Z,13.50
2018-05-26T08:58:41.374Z,15.32
2018-05-26T08:59:42.450Z,13.05
2018-05-26T09:00:43.530Z,15.35
2018-05-26T09:01:44.606Z,10.50
2018-05-26T09:02:46.403Z,12.23
2018-05-26T09:03:47.483Z,13.15
2018-05-26T09:04:49.320Z,13.80
2018-05-26T09:05:51.137Z,13.73
2018-05-26T09:06:52.202Z,13.90
2018-05-26T09:07:54.000Z,11.35
2018-05-26T09:08:55.084Z,13.40
2018-05-26T09:09:56.914Z,15.50
2018-05-26T09:10:57.975Z,14.10
2018-05-26T09:11:59.775Z,11.90
2018-05-26T09:13:00.831Z,11.00
2018-05-26T09:14:01.911Z,12.25
2018-05-26T09:15:03.023Z,10.65
2018-05-26T09:16:04.092Z,14.50
2018-05-26T09:17:05.389Z,10.20
2018-05-26T09:18:07.476Z,13.35
2018-05-26T09:19:08.589Z,10.77
2018-05-26T09:20:10.382Z,14.02
2018-05-26T09:21:11.449Z,12.75
2018-05-26T09:22:13.239Z,9.73
2018-05-26T09:23:14.295Z,11.10
2018-05-26T09:24:15.362Z,13.35
2018-05-26T09:25:17.085Z,10.48
2018-05-26T09:26:18.095Z,14.07
2018-05-26T09:27:19.179Z,16.45
2018-05-26T09:28:20.991Z,10.18
2018-05-26T09:29:22.086Z,11.02
2018-05-26T09:30:23.180Z,14.45
2018-05-26T09:31:24.249Z,13.77
2018-05-26T09:32:25.303Z,17.42
2018-05-26T09:33:26.356Z,14.52
2018-05-26T09:34:27.433Z,11.70
2018-05-26T09:35:29.234Z,15.32
2018-05-26T09:36:30.313Z,16.83
2018-05-26T09:37:31.383Z,14.07
2018-05-26T09:38:32.454Z,14.15
2018-05-26T09:39:33.530Z,11.35
2018-05-26T09:40:34.586Z,15.85
2018-05-26T09:41:35.667Z,9.75
2018-05-26T09:42:37.466Z,15.65
2018-05-26T09:43:38.521Z,13.45
2018-05-26T09:44:39.585Z,13.05
2018-05-26T09:45:40.674Z,13.80
2018-05-26T09:46:41.734Z,10.52
2018-05-26T09:47:43.554Z,11.98
2018-05-26T09:48:44.615Z,13.75
2018-05-26T09:49:46.441Z,11.40
2018-05-26T09:50:47.509Z,12.77
2018-05-26T09:51:49.315Z,11.88
2018-05-26T09:52:50.371Z,11.43
2018-05-26T09:53:52.199Z,12.60
2018-05-26T09:54:53.264Z,15.95
2018-05-26T09:55:55.083Z,12.52
2018-05-26T09:56:56.146Z,10.65
2018-05-26T09:57:57.945Z,13.75
2018-05-26T09:58:58.986Z,13.40
2018-05-26T10:00:00.052Z,9.60
2018-05-26T10:01:01.149Z,14.45
2018-05-26T10:02:02.227Z,9.82
2018-05-26T10:03:04.031Z,12.32
2018-05-26T10:04:05.119Z,13.20
2018-05-26T10:05:06.182Z,11.73
2018-05-26T10:06:07.268Z,13.88
2018-05-26T10:07:09.068Z,15.35
2018-05-26T10:08:10.148Z,12.63
2018-05-26T10:09:11.206Z,10.23
2018-05-26T10:10:12.258Z,13.40
2018-05-26T10:11:13.339Z,12.50
2018-05-26T10:12:14.398Z,13.10
2018-05-26T10:13:15.462Z,10.35
2018-05-26T10:14:16.558Z,11.45
2018-05-26T10:15:17.607Z,11.57
2018-05-26T10:16:18.708Z,13.10
2018-05-26T10:17:20.515Z,9.73
2018-05-26T10:18:21.594Z,11.48
2018-05-26T10:19:22.671Z,13.05
2018-05-26T10:20:23.732Z,12.98
2018-05-26T10:21:24.843Z,12.30
2018-05-26T10:22:25.912Z,14.77
2018-05-26T10:23:27.715Z,11.10
2018-05-26T10:24:28.811Z,9.93
2018-05-26T10:25:29.878Z,12.15
2018-05-26T10:26:30.975Z,10.70
2018-05-26T10:27:32.053Z,15.48
2018-05-26T10:28:33.119Z,7.45
2018-05-26T10:29:34.931Z,11.00
2018-05-26T10:30:36.004Z,12.82
2018-05-26T10:31:37.808Z,10.13
2018-05-26T10:32:38.866Z,9.60
2018-05-26T10:33:39.998Z,10.48
2018-05-26T10:34:41.088Z,16.08
2018-05-26T10:35:42.859Z,10.30
2018-05-26T10:36:43.945Z,11.30
2018-05-26T10:37:45.003Z,12.23
2018-05-26T10:38:46.070Z,7.95
2018-05-26T10:39:47.130Z,15.20
2018-05-26T10:40:48.922Z,11.27
2018-05-26T10:41:49.999Z,12.95
2018-05-26T10:42:51.036Z,17.17
2018-05-26T10:43:52.838Z,11.30
2018-05-26T10:44:53.903Z,11.68
2018-05-26T10:46:07.224Z,12.93
2018-05-26T10:47:08.276Z,13.55
2018-05-26T10:48:09.345Z,9.95
2018-05-26T10:49:10.414Z,12.18
2018-05-26T10:50:11.496Z,10.52
2018-05-26T10:51:12.540Z,12.27
2018-05-26T10:52:17.589Z,11.20
2018-05-26T10:53:18.640Z,12.20
2018-05-26T10:54:19.678Z,14.40
2018-05-26T10:55:20.699Z,14.38
2018-05-26T10:56:21.746Z,12.90
2018-05-26T10:57:22.829Z,13.55
2018-05-26T10:58:23.863Z,13.00
2018-05-26T10:59:24.899Z,14.90
2018-05-26T11:00:25.930Z,12.30
2018-05-26T11:01:27.007Z,14.87
2018-05-26T11:02:28.049Z,11.60
2018-05-26T11:03:29.085Z,13.73
2018-05-26T11:04:30.163Z,10.45
2018-05-26T11:05:31.180Z,13.13
2018-05-26T11:06:44.447Z,10.63
2018-05-26T11:07:45.487Z,11.20
2018-05-26T11:08:46.512Z,13.20
2018-05-26T11:09:47.562Z,11.32
2018-05-26T11:10:48.588Z,12.05
2018-05-26T11:11:49.627Z,11.70
2018-05-26T11:12:51.420Z,14.05
2018-05-26T11:13:52.448Z,15.68
2018-05-26T11:14:53.467Z,10.88
2018-05-26T11:15:54.519Z,15.77
2018-05-26T11:16:55.569Z,14.30
2018-05-26T11:17:56.873Z,13.38
2018-05-26T11:18:57.697Z,11.57
2018-05-26T11:19:58.687Z,15.23
2018-05-26T11:20:59.723Z,13.35
2018-05-26T11:22:00.753Z,17.67
2018-05-26T11:23:01.807Z,14.80
2018-05-26T11:24:03.094Z,14.82
2018-05-26T11:25:03.906Z,12.82
2018-05-26T11:26:05.812Z,16.42
2018-05-26T11:27:06.744Z,17.75
2018-05-26T11:28:07.800Z,17.75
2018-05-26T11:29:08.844Z,14.52
2018-05-26T11:30:09.954Z,12.00
2018-05-26T11:31:11.084Z,9.77
2018-05-26T11:32:12.046Z,12.63
2018-05-26T11:33:13.112Z,11.95
2018-05-26T11:34:14.151Z,14.25
2018-05-26T11:35:15.956Z,10.02
2018-05-26T11:36:16.999Z,11.55
2018-05-26T11:37:18.024Z,12.45
2018-05-26T11:38:19.056Z,10.35
2018-05-26T11:39:20.084Z,12.85
2018-05-26T11:40:21.112Z,10.57
2018-05-26T11:41:22.160Z,12.18
2018-05-26T11:42:23.216Z,10.57
2018-05-26T11:43:24.265Z,12.60
2018-05-26T11:44:26.030Z,10.77
2018-05-26T11:45:27.051Z,10.90
2018-05-26T11:46:28.088Z,11.45
2018-05-26T11:47:29.112Z,10.38
2018-05-26T11:48:30.154Z,12.70
2018-05-26T11:49:31.199Z,12.50
2018-05-26T11:50:32.234Z,10.43
2018-05-26T11:51:34.011Z,12.48
2018-05-26T11:52:35.047Z,13.18
2018-05-26T11:53:36.104Z,9.05
2018-05-26T11:54:37.867Z,12.70
2018-05-26T11:55:38.942Z,12.18
2018-05-26T11:56:39.975Z,12.23
2018-05-26T11:57:41.008Z,14.05
2018-05-26T11:58:42.051Z,10.70
2018-05-26T11:59:43.098Z,13.18
2018-05-26T12:00:44.129Z,10.05
2018-05-26T12:01:45.183Z,12.57
2018-05-26T12:02:46.190Z,10.82
2018-05-26T12:03:47.235Z,13.62
2018-05-26T12:04:49.003Z,11.25
2018-05-26T12:05:50.023Z,11.75
2018-05-26T12:06:51.054Z,13.50
2018-05-26T12:07:52.827Z,10.35
2018-05-26T12:08:53.904Z,12.85
2018-05-26T12:09:54.968Z,13.10
2018-05-26T12:10:56.808Z,10.93
2018-05-26T12:11:57.828Z,12.88
2018-05-26T12:12:58.852Z,10.10
2018-05-26T12:13:59.906Z,12.18
2018-05-26T12:15:01.692Z,11.48
2018-05-26T12:16:02.747Z,9.10
2018-05-26T12:17:03.787Z,11.90
2018-05-26T12:18:04.830Z,9.20
2018-05-26T12:19:05.874Z,11.57
2018-05-26T12:20:07.643Z,9.80
2018-05-26T12:21:08.678Z,8.88
2018-05-26T12:22:09.724Z,14.98
2018-05-26T12:23:10.746Z,8.15
2018-05-26T12:24:11.780Z,10.93
2018-05-26T12:25:13.611Z,10.25
2018-05-26T12:26:15.379Z,10.73
2018-05-26T12:27:16.408Z,10.52
2018-05-26T12:28:17.436Z,16.62
2018-05-26T12:29:18.467Z,9.63
2018-05-26T12:30:19.501Z,12.23
2018-05-26T12:31:20.522Z,10.98
2018-05-26T12:32:21.544Z,12.60
2018-05-26T12:33:23.322Z,11.05
2018-05-26T12:34:24.378Z,12.35
2018-05-26T12:35:25.427Z,11.68
2018-05-26T12:36:26.462Z,11.98
2018-05-26T12:37:27.512Z,9.57
2018-05-26T12:38:29.291Z,9.65
2018-05-26T12:39:30.327Z,10.57
2018-05-26T12:40:32.128Z,9.48
2018-05-26T12:41:33.903Z,10.95
2018-05-26T12:42:34.919Z,9.70
2018-05-26T12:43:36.679Z,12.18
2018-05-26T12:44:37.732Z,11.50
2018-05-26T12:45:38.770Z,11.00
2018-05-26T12:46:39.802Z,9.85
2018-05-26T12:47:40.871Z,9.00
2018-05-26T12:48:41.914Z,10.73
2018-05-26T12:49:42.960Z,9.63
2018-05-26T12:50:44.735Z,10.82
2018-05-26T12:51:45.765Z,12.35
2018-05-26T12:52:47.530Z,8.32
2018-05-26T12:53:49.300Z,9.40
2018-05-26T12:54:50.343Z,10.52
2018-05-26T12:55:51.409Z,12.32
2018-05-26T12:56:52.455Z,10.18
2018-05-26T12:57:53.501Z,10.75
2018-05-26T12:58:55.282Z,8.07
2018-05-26T12:59:56.325Z,12.57
2018-05-26T13:00:58.088Z,11.50
2018-05-26T13:01:59.870Z,12.77
2018-05-26T13:03:01.651Z,12.18
2018-05-26T13:04:02.699Z,10.88
2018-05-26T13:05:03.755Z,10.35
2018-05-26T13:06:05.597Z,8.68
2018-05-26T13:07:06.591Z,9.77
2018-05-26T13:08:07.638Z,11.63
2018-05-26T13:09:08.671Z,12.07
2018-05-26T13:10:09.711Z,10.57
2018-05-26T13:11:11.487Z,8.13
2018-05-26T13:12:12.534Z,9.48